Time;durP1;ratioP1;P1;durP2;ratioP2;P2;SDS_P1;SDS_P2;PMS_P1;PMS_P2;Temp;Humidity;BMP_temperature;BMP_pressure;BME280_temperature;BME280_humidity;BME280_pressure;Samples;Min_cycle;Max_cycle;Signal;HPM_P1;HPM_P2
2022/11/17 00:00:03;;;;;;;95.40;52.97;;;12.10;99.90;;;;;;6276351;22;20067;-78
2022/11/17 00:02:29;;;;;;;91.45;50.08;;;12.00;99.90;;;;;;6276431;22;20003;-79
2022/11/17 00:04:55;;;;;;;86.80;47.63;;;12.00;99.90;;;;;;6276788;22;20024;-80
2022/11/17 00:07:21;;;;;;;87.25;48.60;;;11.90;99.90;;;;;;6274452;22;20017;-79
2022/11/17 00:09:47;;;;;;;78.55;45.78;;;12.00;99.90;;;;;;6276943;22;20061;-80
2022/11/17 00:14:56;;;;;;;52.28;33.45;;;11.90;99.90;;;;;;6277788;22;20053;-79
2022/11/17 00:17:22;;;;;;;56.33;33.80;;;11.80;99.90;;;;;;6278704;22;20067;-79
2022/11/17 00:22:32;;;;;;;56.65;34.10;;;11.80;99.90;;;;;;6278567;22;20006;-79
2022/11/17 00:24:58;;;;;;;46.00;30.30;;;11.80;99.90;;;;;;6252052;22;20004;-79
2022/11/17 00:27:24;;;;;;;48.55;30.88;;;11.70;99.90;;;;;;6278824;22;19995;-78
2022/11/17 00:29:50;;;;;;;42.05;26.65;;;11.80;99.90;;;;;;6278109;22;20014;-78
2022/11/17 00:35:03;;;;;;;42.97;27.63;;;11.70;99.90;;;;;;6278309;22;20309;-79
2022/11/17 00:37:32;;;;;;;36.33;25.48;;;11.70;99.90;;;;;;6278736;22;19996;-77
2022/11/17 00:39:58;;;;;;;31.20;23.30;;;11.60;99.90;;;;;;6278618;22;20018;-78
2022/11/17 00:42:24;;;;;;;32.70;21.50;;;11.60;99.90;;;;;;6278023;22;19995;-79
2022/11/17 00:44:50;;;;;;;32.42;23.63;;;11.60;99.90;;;;;;6278707;22;20015;-79
2022/11/17 00:47:15;;;;;;;36.78;23.02;;;11.50;99.90;;;;;;6278469;22;20071;-79
2022/11/17 00:49:41;;;;;;;34.83;23.83;;;11.50;99.90;;;;;;6276905;22;20491;-78
2022/11/17 00:52:08;;;;;;;32.85;23.13;;;11.50;99.90;;;;;;6251384;22;20059;-79
2022/11/17 00:54:34;;;;;;;30.35;21.30;;;11.40;99.90;;;;;;6278493;22;20071;-79
2022/11/17 00:57:00;;;;;;;30.85;20.58;;;11.50;99.90;;;;;;6276841;22;20002;-77
2022/11/17 00:59:26;;;;;;;30.95;20.77;;;11.40;99.90;;;;;;6276858;22;19996;-78
2022/11/17 01:01:51;;;;;;;30.80;19.27;;;11.40;99.90;;;;;;6277555;22;20067;-80
2022/11/17 01:04:17;;;;;;;26.50;18.02;;;11.40;99.90;;;;;;6278099;22;20003;-78
2022/11/17 01:06:48;;;;;;;28.00;19.15;;;11.30;99.90;;;;;;6278488;22;20067;-77
2022/11/17 01:09:16;;;;;;;32.30;20.45;;;11.30;99.90;;;;;;6277680;22;19995;-79
2022/11/17 01:11:43;;;;;;;28.88;18.83;;;11.40;99.90;;;;;;6278250;22;19992;-77
2022/11/17 01:14:24;;;;;;;37.10;20.33;;;11.40;99.90;;;;;;6278374;22;19999;-79
2022/11/17 01:16:50;;;;;;;53.20;33.80;;;11.30;99.90;;;;;;6278880;22;19999;-77
2022/11/17 01:19:17;;;;;;;38.70;27.75;;;11.30;99.90;;;;;;6277869;22;20306;-80
2022/11/17 01:21:45;;;;;;;35.88;25.55;;;11.30;99.90;;;;;;6278326;22;19999;-78
2022/11/17 01:24:11;;;;;;;24.52;16.65;;;11.30;99.90;;;;;;6276435;22;20170;-80
2022/11/17 01:26:38;;;;;;;19.25;14.30;;;11.20;99.90;;;;;;6277878;22;19992;-78
2022/11/17 01:29:05;;;;;;;20.67;15.57;;;11.20;99.90;;;;;;6277845;22;19995;-80
2022/11/17 01:31:34;;;;;;;23.35;15.50;;;11.20;99.90;;;;;;6250626;22;20008;-79
2022/11/17 01:34:00;;;;;;;12.75;9.38;;;11.20;99.90;;;;;;6278365;22;19994;-79
2022/11/17 01:39:16;;;;;;;16.90;11.25;;;11.20;99.90;;;;;;6277869;22;20007;-78
2022/11/17 01:41:42;;;;;;;17.35;9.88;;;11.20;99.90;;;;;;6277977;22;20004;-77
2022/11/17 01:44:47;;;;;;;10.30;7.30;;;11.10;99.90;;;;;;6277725;22;20003;-77
2022/11/17 01:47:43;;;;;;;10.45;5.30;;;11.10;99.90;;;;;;6250892;22;20004;-78
2022/11/17 01:50:15;;;;;;;6.70;4.82;;;11.00;99.90;;;;;;6277979;22;20058;-80
2022/11/17 01:52:41;;;;;;;;;;;10.90;99.90;;;;;;6278543;22;20004;-79
2022/11/17 01:55:10;;;;;;;7.43;5.20;;;10.90;99.90;;;;;;6277702;22;20293;-78
2022/11/17 01:57:45;;;;;;;9.13;5.13;;;10.80;99.90;;;;;;6277997;22;19992;-79
2022/11/17 02:00:12;;;;;;;6.95;4.65;;;10.80;99.90;;;;;;6250619;22;20022;-80
2022/11/17 02:02:39;;;;;;;9.77;5.55;;;10.80;99.90;;;;;;6278012;22;20029;-78
2022/11/17 02:05:29;;;;;;;10.57;6.20;;;10.80;99.90;;;;;;6250647;22;20010;-80
2022/11/17 02:07:58;;;;;;;7.75;5.60;;;10.70;99.90;;;;;;6277226;22;19987;-77
2022/11/17 02:10:24;;;;;;;10.43;7.07;;;10.70;99.90;;;;;;6277620;22;20053;-80
2022/11/17 02:12:52;;;;;;;12.32;7.07;;;10.70;99.90;;;;;;6278069;22;20002;-78
2022/11/17 02:15:18;;;;;;;10.23;7.25;;;10.70;99.90;;;;;;6277215;22;19996;-79
2022/11/17 02:17:44;;;;;;;9.75;6.90;;;10.70;99.90;;;;;;6277586;22;20022;-79
2022/11/17 02:20:15;;;;;;;10.13;8.23;;;10.70;99.90;;;;;;6276022;22;20409;-79
2022/11/17 02:23:02;;;;;;;10.65;8.10;;;10.70;99.90;;;;;;6277427;22;19999;-79
2022/11/17 02:25:43;;;;;;;10.68;8.50;;;10.70;99.90;;;;;;6277478;22;20401;-80
2022/11/17 02:28:45;;;;;;;10.48;8.07;;;10.60;99.90;;;;;;6277391;22;19991;-79
2022/11/17 02:31:28;;;;;;;11.13;8.45;;;10.60;99.90;;;;;;6276392;22;20015;-80
2022/11/17 02:34:22;;;;;;;14.88;8.52;;;10.60;99.90;;;;;;6250563;22;20076;-80
2022/11/17 02:37:10;;;;;;;13.88;10.00;;;10.50;99.90;;;;;;6277200;22;20412;-80
2022/11/17 02:39:46;;;;;;;13.68;10.38;;;10.50;99.90;;;;;;6277965;22;19988;-77
2022/11/17 02:44:02;;;;;;;14.02;10.40;;;10.50;99.90;;;;;;6277187;22;20079;-77
2022/11/17 02:45:10;;;;;;;16.13;11.65;;;10.50;99.90;;;;;;6277318;22;20000;-78
2022/11/17 02:47:40;;;;;;;17.25;12.38;;;10.50;99.90;;;;;;6277895;22;20409;-78
2022/11/17 02:50:08;;;;;;;19.55;12.80;;;10.50;99.90;;;;;;6277708;22;20026;-78
2022/11/17 02:52:34;;;;;;;18.92;12.38;;;10.50;99.90;;;;;;6277836;22;20003;-78
2022/11/17 02:55:06;;;;;;;19.38;13.15;;;10.50;99.90;;;;;;6277327;22;20300;-78
2022/11/17 02:57:37;;;;;;;19.13;13.60;;;10.50;99.90;;;;;;6277745;22;20305;-79
2022/11/17 03:00:10;;;;;;;24.70;15.27;;;10.50;99.90;;;;;;6277708;22;20000;-79
2022/11/17 03:03:04;;;;;;;26.50;17.48;;;10.40;99.90;;;;;;6277415;22;19999;-79
2022/11/17 03:05:48;;;;;;;27.33;17.85;;;10.40;99.90;;;;;;6250640;22;20003;-78
2022/11/17 03:08:14;;;;;;;25.77;16.92;;;10.40;99.90;;;;;;6277407;22;19992;-77
2022/11/17 03:11:12;;;;;;;22.63;15.27;;;10.40;99.90;;;;;;6276912;22;20075;-78
2022/11/17 03:13:58;;;;;;;20.65;13.63;;;10.40;99.90;;;;;;6183445;23;20485;-78
2022/11/17 03:16:43;;;;;;;24.77;13.90;;;10.40;99.90;;;;;;6183263;23;20081;-78
2022/11/17 03:19:27;;;;;;;21.80;13.60;;;10.30;99.90;;;;;;6183319;23;20406;-78
2022/11/17 03:22:20;;;;;;;20.73;12.93;;;10.30;99.90;;;;;;6183152;23;20338;-78
2022/11/17 03:24:50;;;;;;;23.33;12.93;;;10.30;99.90;;;;;;6183451;23;20295;-78
2022/11/17 03:27:39;;;;;;;19.77;12.80;;;10.20;99.90;;;;;;6183240;23;20005;-80
2022/11/17 03:30:07;;;;;;;22.85;13.50;;;10.20;99.90;;;;;;6183055;23;20001;-78
2022/11/17 03:32:37;;;;;;;24.45;13.50;;;10.20;99.90;;;;;;6183076;23;20487;-77
2022/11/17 03:35:16;;;;;;;22.52;13.63;;;10.20;99.90;;;;;;6158290;23;20056;-77
2022/11/17 03:37:48;;;;;;;23.50;14.02;;;10.20;99.90;;;;;;6182904;23;20520;-78
2022/11/17 03:40:17;;;;;;;23.98;14.40;;;10.20;99.90;;;;;;6183136;23;19996;-77
2022/11/17 03:42:52;;;;;;;24.58;13.77;;;10.20;99.90;;;;;;6182974;23;20008;-78
2022/11/17 03:45:25;;;;;;;22.85;13.48;;;10.10;99.90;;;;;;6183037;23;20023;-77
2022/11/17 03:47:58;;;;;;;27.40;14.60;;;10.10;99.90;;;;;;6183101;23;20001;-78
2022/11/17 03:50:32;;;;;;;25.73;14.43;;;10.10;99.90;;;;;;6277104;22;20075;-77
2022/11/17 03:53:03;;;;;;;26.50;14.95;;;10.10;99.90;;;;;;6276392;22;20305;-79
2022/11/17 03:55:39;;;;;;;27.98;16.02;;;10.10;99.90;;;;;;6277097;22;19995;-77
2022/11/17 03:58:10;;;;;;;35.10;17.08;;;10.10;99.90;;;;;;6249517;22;20022;-78
2022/11/17 04:00:39;;;;;;;39.33;20.38;;;10.10;99.90;;;;;;6276696;22;20027;-80
2022/11/17 04:03:05;;;;;;;48.28;21.85;;;10.00;99.90;;;;;;6276776;22;20000;-77
2022/11/17 04:05:31;;;;;;;42.47;22.92;;;9.90;99.90;;;;;;6276185;22;20067;-79
2022/11/17 04:07:56;;;;;;;46.33;24.50;;;9.80;99.90;;;;;;6276921;22;20401;-78
2022/11/17 04:10:26;;;;;;;45.70;22.88;;;9.80;99.90;;;;;;6276829;22;20301;-77
2022/11/17 04:15:55;;;;;;;51.35;24.52;;;9.70;99.90;;;;;;6276804;22;20007;-78
2022/11/17 04:18:22;;;;;;;45.17;22.95;;;9.70;99.90;;;;;;6276753;22;19995;-76
2022/11/17 04:20:52;;;;;;;52.75;23.70;;;9.60;99.90;;;;;;6276503;22;19992;-76
2022/11/17 04:23:19;;;;;;;53.38;24.90;;;9.60;99.90;;;;;;6249892;22;20099;-78
2022/11/17 04:28:37;;;;;;;49.08;24.42;;;9.50;99.90;;;;;;6277041;22;20065;-77
2022/11/17 04:31:10;;;;;;;56.58;24.85;;;9.40;99.90;;;;;;6276756;22;20596;-77
2022/11/17 04:33:38;;;;;;;48.90;23.98;;;9.40;99.90;;;;;;6276663;22;20003;-77
2022/11/17 04:36:04;;;;;;;53.60;26.08;;;9.40;99.90;;;;;;6276641;22;20308;-77
2022/11/17 04:38:30;;;;;;;53.00;25.95;;;9.40;99.90;;;;;;6249504;22;20078;-77
2022/11/17 04:43:52;;;;;;;53.70;25.88;;;9.30;99.90;;;;;;6276561;22;20007;-77
2022/11/17 04:46:18;;;;;;;57.22;26.23;;;9.30;99.90;;;;;;6249942;22;20018;-77
2022/11/17 04:48:45;;;;;;;57.90;25.63;;;9.30;99.90;;;;;;6249661;22;20050;-79
2022/11/17 04:51:11;;;;;;;60.78;28.50;;;9.30;99.90;;;;;;6276636;22;20297;-77
2022/11/17 04:53:37;;;;;;;78.13;38.90;;;9.20;99.90;;;;;;6276752;22;20031;-78
2022/11/17 04:56:04;;;;;;;89.93;48.47;;;9.20;99.90;;;;;;6276047;22;19987;-78
2022/11/17 04:58:30;;;;;;;97.28;52.00;;;9.10;99.90;;;;;;6276297;22;19999;-76
2022/11/17 05:01:11;;;;;;;93.40;49.80;;;9.20;99.90;;;;;;6277617;22;20000;-78
2022/11/17 05:03:40;;;;;;;86.65;41.88;;;9.10;99.90;;;;;;6276915;22;20007;-78
2022/11/17 05:06:06;;;;;;;89.97;43.70;;;9.10;99.90;;;;;;6278023;22;20027;-78
2022/11/17 05:08:35;;;;;;;80.22;41.80;;;9.00;99.90;;;;;;6277881;22;20065;-77
2022/11/17 05:13:46;;;;;;;84.47;40.97;;;9.00;99.90;;;;;;6277803;22;20439;-79
2022/11/17 05:18:56;;;;;;;74.53;37.35;;;8.90;99.90;;;;;;6278055;22;20126;-79
2022/11/17 05:21:22;;;;;;;100.53;44.85;;;8.90;99.90;;;;;;6278422;22;20038;-79
2022/11/17 05:23:53;;;;;;;83.05;36.50;;;8.90;99.90;;;;;;6276365;22;20030;-78
2022/11/17 05:26:22;;;;;;;78.95;34.78;;;8.80;99.90;;;;;;6278288;22;20289;-77
2022/11/17 05:28:48;;;;;;;81.70;35.63;;;8.80;99.90;;;;;;6278183;22;20401;-77
2022/11/17 05:31:14;;;;;;;76.15;34.47;;;8.80;99.90;;;;;;6277479;22;20015;-77
2022/11/17 05:33:40;;;;;;;72.95;31.38;;;8.80;99.90;;;;;;6277837;22;20313;-78
2022/11/17 05:36:07;;;;;;;76.88;33.05;;;8.80;99.90;;;;;;6277505;22;20068;-78
2022/11/17 05:38:33;;;;;;;80.38;34.28;;;8.70;99.90;;;;;;6277857;22;19995;-77
2022/11/17 05:40:59;;;;;;;83.25;37.38;;;8.70;99.90;;;;;;6277991;22;20062;-76
2022/11/17 05:43:25;;;;;;;88.88;41.35;;;8.70;99.90;;;;;;6276288;22;20010;-78
2022/11/17 05:45:51;;;;;;;88.95;39.13;;;8.60;99.90;;;;;;6278233;22;20346;-77
2022/11/17 05:48:17;;;;;;;86.47;37.67;;;8.70;99.90;;;;;;6250870;22;19996;-78
2022/11/17 05:50:43;;;;;;;90.57;40.25;;;8.60;99.90;;;;;;6275899;22;20002;-77
2022/11/17 05:53:09;;;;;;;107.03;46.03;;;8.50;99.90;;;;;;6278317;22;20006;-78
2022/11/17 05:55:35;;;;;;;137.43;59.28;;;8.50;99.90;;;;;;6277837;22;19996;-77
2022/11/17 05:58:28;;;;;;;113.28;47.45;;;8.50;99.90;;;;;;6278052;22;19988;-78
2022/11/17 06:00:56;;;;;;;101.75;43.97;;;8.40;99.90;;;;;;6274147;22;20010;-78
2022/11/17 06:03:30;;;;;;;94.78;42.35;;;8.50;99.90;;;;;;6249518;22;20022;-77
2022/11/17 06:05:57;;;;;;;101.07;42.78;;;8.40;99.90;;;;;;6276899;22;20000;-76
2022/11/17 06:08:23;;;;;;;98.40;40.63;;;8.50;99.90;;;;;;6278201;22;19999;-78
2022/11/17 06:10:48;;;;;;;104.70;43.13;;;8.50;99.90;;;;;;6277759;22;19996;-77
2022/11/17 06:13:14;;;;;;;125.75;56.67;;;8.60;99.90;;;;;;6277657;22;20312;-76
2022/11/17 06:15:40;;;;;;;127.25;54.83;;;8.60;99.90;;;;;;6278179;22;20011;-78
2022/11/17 06:18:13;;;;;;;136.50;61.45;;;8.70;99.90;;;;;;6277626;22;19992;-77
2022/11/17 06:20:44;;;;;;;132.98;62.38;;;8.80;99.90;;;;;;6277081;22;20046;-76
2022/11/17 06:23:11;;;;;;;91.50;44.60;;;8.80;99.90;;;;;;6277353;22;20007;-77
2022/11/17 06:25:37;;;;;;;105.57;47.85;;;8.80;99.90;;;;;;6277321;22;20348;-78
2022/11/17 06:28:06;;;;;;;103.35;47.40;;;8.90;99.90;;;;;;6277601;22;20064;-78
2022/11/17 06:30:33;;;;;;;112.20;51.67;;;8.90;99.90;;;;;;6277561;22;19996;-77
2022/11/17 06:33:00;;;;;;;101.68;48.65;;;8.90;99.90;;;;;;6277886;22;20035;-78
2022/11/17 06:35:27;;;;;;;111.45;51.28;;;9.00;99.90;;;;;;6278167;22;19995;-78
2022/11/17 06:37:53;;;;;;;102.28;46.50;;;9.10;99.90;;;;;;6277845;22;20046;-77
2022/11/17 06:40:19;;;;;;;111.10;50.05;;;9.10;99.90;;;;;;6277736;22;20000;-76
2022/11/17 06:43:07;;;;;;;110.80;50.22;;;9.20;99.90;;;;;;6277593;22;19992;-77
2022/11/17 06:45:44;;;;;;;106.22;51.67;;;9.20;99.90;;;;;;6278168;22;19992;-77
2022/11/17 06:48:11;;;;;;;90.90;41.88;;;9.20;99.90;;;;;;6250383;22;19992;-77
2022/11/17 06:50:37;;;;;;;84.57;42.70;;;9.20;99.90;;;;;;6250712;22;20304;-78
2022/11/17 06:53:07;;;;;;;84.65;40.22;;;9.30;99.90;;;;;;6277666;22;20412;-76
2022/11/17 06:55:33;;;;;;;89.70;44.88;;;9.30;99.90;;;;;;6277541;22;20063;-77
2022/11/17 06:58:11;;;;;;;93.10;41.20;;;9.30;99.90;;;;;;6277286;22;19995;-78
2022/11/17 07:00:37;;;;;;;87.05;38.78;;;9.30;99.90;;;;;;6277648;22;20003;-77
2022/11/17 07:03:05;;;;;;;101.25;44.22;;;9.30;99.90;;;;;;6277742;22;19999;-77
2022/11/17 07:05:32;;;;;;;91.30;39.85;;;9.30;99.90;;;;;;6277310;22;19999;-76
2022/11/17 07:08:00;;;;;;;102.05;44.95;;;9.30;99.90;;;;;;6277517;22;19999;-78
2022/11/17 07:10:27;;;;;;;105.00;46.45;;;9.40;99.90;;;;;;6277611;22;19992;-79
2022/11/17 07:12:53;;;;;;;94.15;44.92;;;9.40;99.90;;;;;;6277191;22;20000;-77
2022/11/17 07:15:19;;;;;;;87.63;39.95;;;9.40;99.90;;;;;;6277621;22;20022;-77
2022/11/17 07:17:45;;;;;;;75.60;36.60;;;9.40;99.90;;;;;;6276308;22;20003;-78
2022/11/17 07:20:11;;;;;;;69.55;33.80;;;9.40;99.90;;;;;;6277610;22;19992;-77
2022/11/17 07:22:37;;;;;;;91.07;41.63;;;9.40;99.90;;;;;;6250009;22;20308;-77
2022/11/17 07:25:04;;;;;;;97.30;44.70;;;9.40;99.90;;;;;;6277462;22;20433;-78
2022/11/17 07:27:30;;;;;;;102.45;45.40;;;9.50;99.90;;;;;;6277519;22;20066;-77
2022/11/17 07:29:56;;;;;;;90.03;41.15;;;9.50;99.90;;;;;;6277334;22;19992;-76
2022/11/17 07:32:22;;;;;;;88.00;42.03;;;9.50;99.90;;;;;;6277560;22;20018;-78
2022/11/17 07:34:48;;;;;;;94.70;45.75;;;9.60;99.90;;;;;;6277542;22;19996;-77
2022/11/17 07:37:14;;;;;;;81.45;38.50;;;9.60;99.90;;;;;;6250203;22;20409;-78
2022/11/17 07:39:39;;;;;;;107.95;46.78;;;9.60;99.90;;;;;;6277390;22;20476;-78
2022/11/17 07:42:05;;;;;;;92.72;44.63;;;9.70;99.90;;;;;;6277085;22;20007;-78
2022/11/17 07:44:31;;;;;;;110.45;56.97;;;9.70;99.90;;;;;;6277477;22;19996;-78
2022/11/17 07:46:57;;;;;;;127.13;60.58;;;9.70;99.90;;;;;;6277326;22;19996;-76
2022/11/17 07:49:23;;;;;;;102.47;50.55;;;9.70;99.90;;;;;;6277253;22;20067;-77
2022/11/17 07:51:48;;;;;;;112.35;54.05;;;9.70;99.90;;;;;;6277122;22;20421;-78
2022/11/17 07:54:14;;;;;;;108.75;51.30;;;9.60;99.90;;;;;;6276041;22;19999;-79
2022/11/17 07:56:40;;;;;;;142.88;69.22;;;9.70;99.90;;;;;;6276766;22;20003;-78
2022/11/17 07:59:05;;;;;;;97.95;45.70;;;9.70;99.90;;;;;;6277436;22;20075;-77
2022/11/17 08:01:31;;;;;;;105.03;51.47;;;9.70;99.90;;;;;;6276875;22;20278;-78
2022/11/17 08:03:57;;;;;;;105.78;50.53;;;9.70;99.90;;;;;;6276442;22;20439;-79
2022/11/17 08:06:23;;;;;;;83.32;41.45;;;9.80;99.90;;;;;;6277372;22;20045;-78
2022/11/17 08:08:50;;;;;;;86.43;40.22;;;9.70;99.90;;;;;;6276907;22;20023;-78
2022/11/17 08:11:16;;;;;;;94.32;41.47;;;9.70;99.90;;;;;;6277043;22;19995;-76
2022/11/17 08:13:42;;;;;;;96.75;45.33;;;9.70;99.90;;;;;;6275971;22;20010;-78
2022/11/17 08:16:09;;;;;;;96.97;46.15;;;9.70;99.90;;;;;;6277226;22;19996;-76
2022/11/17 08:18:35;;;;;;;86.15;39.42;;;9.70;99.90;;;;;;6249961;22;19995;-77
2022/11/17 08:21:09;;;;;;;84.63;41.13;;;9.80;99.90;;;;;;6276822;22;20061;-78
2022/11/17 08:23:34;;;;;;;78.22;37.72;;;9.80;99.90;;;;;;6277245;22;20011;-78
2022/11/17 08:26:02;;;;;;;74.38;35.80;;;9.90;99.90;;;;;;6277020;22;20071;-78
2022/11/17 08:28:28;;;;;;;71.97;33.72;;;9.90;99.90;;;;;;6250106;22;20413;-77
2022/11/17 08:30:54;;;;;;;81.53;39.17;;;9.90;99.90;;;;;;6276750;22;20019;-78
2022/11/17 08:33:20;;;;;;;63.42;31.20;;;9.90;99.90;;;;;;6276779;22;20042;-79
2022/11/17 08:35:46;;;;;;;69.97;32.30;;;9.90;99.90;;;;;;6276463;22;20534;-77
2022/11/17 08:38:14;;;;;;;79.82;37.95;;;9.90;99.90;;;;;;6278580;22;20428;-77
2022/11/17 08:40:40;;;;;;;81.45;36.45;;;9.90;99.90;;;;;;6252274;22;20050;-78
2022/11/17 08:43:06;;;;;;;74.72;36.20;;;10.00;99.90;;;;;;6278947;22;20030;-77
2022/11/17 08:45:32;;;;;;;78.15;36.60;;;10.00;99.90;;;;;;6278502;22;19996;-77
2022/11/17 08:47:58;;;;;;;102.28;43.67;;;9.90;99.90;;;;;;6278186;22;20114;-77
2022/11/17 08:50:23;;;;;;;84.30;40.67;;;9.90;99.90;;;;;;6277932;22;20172;-78
2022/11/17 08:52:50;;;;;;;76.15;40.38;;;9.90;99.90;;;;;;6278761;22;19996;-77
2022/11/17 08:55:16;;;;;;;88.40;42.10;;;9.90;99.90;;;;;;6279043;22;19995;-78
2022/11/17 08:57:42;;;;;;;73.15;35.40;;;9.90;99.90;;;;;;6251748;22;20023;-78
2022/11/17 09:00:09;;;;;;;72.97;34.95;;;9.80;99.90;;;;;;6278810;22;20019;-77
2022/11/17 09:02:36;;;;;;;91.25;42.63;;;9.80;99.90;;;;;;6278862;22;20312;-78
2022/11/17 09:05:03;;;;;;;79.32;37.88;;;9.90;99.90;;;;;;6278869;22;19996;-78
2022/11/17 09:07:33;;;;;;;86.78;42.50;;;10.00;99.90;;;;;;6278722;22;19996;-79
2022/11/17 09:09:59;;;;;;;91.53;44.38;;;10.00;99.90;;;;;;6279148;22;20292;-76
2022/11/17 09:12:25;;;;;;;73.70;37.22;;;10.00;99.90;;;;;;6279069;22;19999;-77
2022/11/17 09:14:50;;;;;;;69.35;34.70;;;10.00;99.90;;;;;;6278230;22;19994;-76
2022/11/17 09:17:16;;;;;;;94.18;44.17;;;10.10;99.90;;;;;;6278810;22;20061;-79
2022/11/17 09:19:42;;;;;;;95.30;46.63;;;10.10;99.90;;;;;;6278964;22;19999;-78
2022/11/17 09:22:08;;;;;;;71.85;33.63;;;10.20;99.90;;;;;;6278447;22;20305;-76
2022/11/17 09:24:33;;;;;;;60.85;30.83;;;10.20;99.90;;;;;;6278432;22;20019;-76
2022/11/17 09:27:01;;;;;;;44.42;24.90;;;10.30;99.90;;;;;;6278189;22;20311;-77
2022/11/17 09:29:28;;;;;;;58.17;30.90;;;10.30;99.90;;;;;;6279243;22;20049;-78
2022/11/17 09:31:53;;;;;;;52.33;26.98;;;10.40;99.90;;;;;;6277999;22;20074;-77
2022/11/17 09:34:20;;;;;;;52.03;27.73;;;10.40;99.90;;;;;;6278604;22;20401;-77
2022/11/17 09:36:47;;;;;;;59.50;32.50;;;10.50;99.90;;;;;;6278684;22;19999;-77
2022/11/17 09:39:14;;;;;;;63.28;32.90;;;10.50;99.90;;;;;;6278492;22;20002;-79
2022/11/17 09:41:43;;;;;;;66.53;38.10;;;10.60;99.90;;;;;;6278418;22;20018;-78
2022/11/17 09:44:24;;;;;;;64.95;36.92;;;10.50;99.90;;;;;;6278616;22;19995;-78
2022/11/17 09:47:17;;;;;;;63.60;31.98;;;10.60;99.90;;;;;;6278380;22;20023;-77
2022/11/17 09:49:55;;;;;;;54.08;29.50;;;10.60;99.90;;;;;;6278288;22;20015;-79
2022/11/17 09:52:25;;;;;;;54.13;29.98;;;10.70;99.90;;;;;;6278091;22;20000;-77
2022/11/17 09:55:02;;;;;;;41.70;22.17;;;10.80;99.90;;;;;;6278591;22;19992;-78
2022/11/17 09:57:43;;;;;;;47.33;27.23;;;10.80;99.90;;;;;;6278790;22;19995;-79
2022/11/17 10:00:21;;;;;;;51.20;28.10;;;10.90;99.90;;;;;;6278081;22;19992;-77
2022/11/17 10:02:47;;;;;;;45.75;23.23;;;10.90;99.90;;;;;;6277684;22;19996;-79
2022/11/17 10:05:17;;;;;;;45.42;24.50;;;10.90;99.90;;;;;;6278091;22;20038;-78
2022/11/17 10:07:49;;;;;;;50.95;25.83;;;10.90;99.90;;;;;;6250849;22;20003;-79
2022/11/17 10:10:20;;;;;;;55.10;29.50;;;10.90;99.90;;;;;;6278030;22;20023;-79
2022/11/17 10:12:52;;;;;;;46.33;23.48;;;10.80;99.90;;;;;;6278488;22;20435;-77
2022/11/17 10:15:28;;;;;;;47.80;26.52;;;10.90;99.90;;;;;;6278228;22;19999;-79
2022/11/17 10:17:53;;;;;;;42.42;21.92;;;10.90;99.90;;;;;;6278178;22;19992;-77
2022/11/17 10:20:19;;;;;;;55.95;29.20;;;11.00;99.90;;;;;;6276614;22;19995;-76
2022/11/17 10:22:46;;;;;;;49.08;26.90;;;11.00;99.90;;;;;;6278185;22;20409;-78
2022/11/17 10:25:39;;;;;;;35.58;20.17;;;11.10;99.90;;;;;;6277950;22;20004;-79
2022/11/17 10:28:07;;;;;;;37.85;21.27;;;11.00;99.90;;;;;;6278111;22;19998;-77
2022/11/17 10:30:32;;;;;;;45.83;25.10;;;11.10;99.90;;;;;;6277843;22;20037;-77
2022/11/17 10:33:01;;;;;;;76.93;42.33;;;11.20;99.90;;;;;;6277706;22;20016;-78
2022/11/17 10:35:30;;;;;;;128.18;64.70;;;11.20;99.90;;;;;;6277979;22;20038;-78
2022/11/17 10:38:02;;;;;;;102.25;50.35;;;11.30;99.90;;;;;;6250597;22;20343;-78
2022/11/17 10:40:44;;;;;;;97.75;50.67;;;11.30;99.90;;;;;;6278059;22;20066;-77
2022/11/17 10:43:13;;;;;;;43.75;23.63;;;11.40;99.90;;;;;;6277620;22;20410;-79
2022/11/17 10:45:45;;;;;;;65.05;39.15;;;11.40;99.90;;;;;;6277735;22;19996;-78
2022/11/17 10:48:30;;;;;;;51.10;28.45;;;11.40;99.90;;;;;;6277908;22;19991;-78
2022/11/17 10:51:00;;;;;;;44.22;26.50;;;11.40;99.90;;;;;;6277944;22;19991;-77
2022/11/17 10:53:32;;;;;;;87.93;47.70;;;11.30;99.90;;;;;;6277639;22;20312;-78
2022/11/17 10:56:06;;;;;;;69.88;35.67;;;11.30;99.90;;;;;;6277468;22;19992;-77
2022/11/17 10:59:01;;;;;;;38.47;23.52;;;11.40;99.90;;;;;;6277522;22;20070;-79
2022/11/17 11:01:33;;;;;;;46.85;27.75;;;11.40;99.90;;;;;;6278036;22;20466;-79
2022/11/17 11:04:00;;;;;;;32.75;20.77;;;11.40;99.90;;;;;;6277411;22;20074;-78
2022/11/17 11:06:28;;;;;;;35.05;20.65;;;11.50;99.90;;;;;;6277125;22;19996;-77
2022/11/17 11:09:15;;;;;;;28.27;16.70;;;11.70;99.90;;;;;;6277461;22;20282;-77
2022/11/17 11:11:43;;;;;;;28.90;17.25;;;11.90;99.90;;;;;;6277522;22;20003;-78
2022/11/17 11:14:23;;;;;;;26.10;15.50;;;12.10;99.90;;;;;;6277490;22;20073;-78
2022/11/17 11:16:49;;;;;;;27.23;15.93;;;12.50;99.90;;;;;;6250596;22;20097;-79
2022/11/17 11:19:17;;;;;;;26.75;15.85;;;12.50;99.90;;;;;;6277484;22;20090;-77
2022/11/17 11:22:07;;;;;;;27.80;17.25;;;13.10;99.90;;;;;;6277667;22;19991;-78
2022/11/17 11:24:51;;;;;;;33.40;19.23;;;13.30;99.90;;;;;;6277641;22;19996;-77
2022/11/17 11:27:50;;;;;;;32.22;19.42;;;14.20;99.90;;;;;;6277455;22;20003;-79
2022/11/17 11:30:18;;;;;;;32.72;20.02;;;14.70;99.90;;;;;;6250238;22;20473;-77
2022/11/17 11:32:50;;;;;;;45.88;25.98;;;14.90;99.90;;;;;;6277595;22;20022;-79
2022/11/17 11:35:30;;;;;;;37.78;23.08;;;14.90;99.90;;;;;;6277064;22;19988;-77
2022/11/17 11:38:45;;;;;;;40.45;24.52;;;14.90;99.90;;;;;;6250393;22;19996;-79
2022/11/17 11:41:36;;;;;;;47.55;26.77;;;14.80;99.90;;;;;;6263758;22;19996;-80
2022/11/17 11:44:02;;;;;;;59.38;34.65;;;15.10;99.90;;;;;;6277048;22;20003;-78
2022/11/17 11:46:54;;;;;;;47.42;26.38;;;15.30;99.90;;;;;;6277484;22;20026;-79
2022/11/17 11:49:33;;;;;;;;;;;14.70;99.90;;;;;;6250625;22;20078;-78
2022/11/17 11:52:01;;;;;;;337.52;157.43;;;14.80;99.90;;;;;;6277002;22;19895;-78
2022/11/17 11:54:40;;;;;;;42.75;24.90;;;14.60;99.90;;;;;;6277124;22;19991;-80
2022/11/17 11:57:12;;;;;;;59.28;27.42;;;14.30;99.90;;;;;;6277566;22;19996;-79
2022/11/17 11:59:50;;;;;;;;;;;14.30;99.90;;;;;;6277499;22;20431;-79
2022/11/17 12:02:31;;;;;;;37.22;20.45;;;14.40;99.90;;;;;;6277059;22;19903;-76
2022/11/17 12:05:18;;;;;;;42.17;24.63;;;14.50;99.90;;;;;;6249971;22;20355;-78
2022/11/17 12:07:56;;;;;;;39.75;23.52;;;14.30;99.90;;;;;;6277551;22;20469;-78
2022/11/17 12:10:34;;;;;;;35.80;21.77;;;14.20;99.90;;;;;;6279317;22;20401;-77
2022/11/17 12:13:02;;;;;;;35.75;22.70;;;13.90;99.90;;;;;;6252360;22;20006;-77
2022/11/17 12:15:27;;;;;;;49.00;29.20;;;13.80;99.90;;;;;;6279298;22;20019;-77
2022/11/17 12:17:58;;;;;;;50.83;30.00;;;13.60;99.90;;;;;;6279396;22;19988;-78
2022/11/17 12:20:30;;;;;;;50.90;30.40;;;13.60;99.90;;;;;;6279171;22;20352;-78
2022/11/17 12:23:31;;;;;;;53.25;30.92;;;13.60;99.90;;;;;;6279023;22;20000;-79
2022/11/17 12:25:58;;;;;;;62.35;34.65;;;13.50;99.90;;;;;;6279286;22;19987;-77
2022/11/17 12:28:37;;;;;;;113.68;61.05;;;13.60;99.90;;;;;;6279547;22;19995;-77
2022/11/17 12:31:11;;;;;;;56.08;31.40;;;13.60;99.90;;;;;;6279138;22;20004;-77
2022/11/17 12:33:51;;;;;;;43.88;26.63;;;13.60;99.90;;;;;;6278921;22;20031;-79
2022/11/17 12:36:24;;;;;;;47.53;27.63;;;13.60;99.90;;;;;;6278882;22;20003;-77
2022/11/17 12:38:50;;;;;;;60.15;33.22;;;13.60;99.90;;;;;;6279186;22;20071;-78
2022/11/17 12:41:47;;;;;;;61.95;34.05;;;13.50;99.90;;;;;;6278699;22;20019;-79
2022/11/17 12:44:37;;;;;;;53.28;32.15;;;13.40;99.90;;;;;;6279002;22;20000;-77
2022/11/17 12:47:20;;;;;;;79.78;44.80;;;13.50;99.90;;;;;;6279081;22;19996;-78
2022/11/17 12:50:01;;;;;;;193.50;88.70;;;13.50;99.90;;;;;;6279177;22;19992;-78
2022/11/17 12:52:51;;;;;;;74.47;40.95;;;13.60;99.90;;;;;;6279137;22;19999;-78
2022/11/17 12:55:32;;;;;;;60.65;41.50;;;13.50;99.90;;;;;;6278995;22;20321;-77
2022/11/17 12:58:09;;;;;;;70.45;40.95;;;13.40;99.90;;;;;;6278894;22;20000;-78
2022/11/17 13:00:53;;;;;;;61.30;36.63;;;13.40;99.90;;;;;;6279231;22;20000;-77
2022/11/17 13:03:46;;;;;;;64.88;37.80;;;13.20;99.90;;;;;;6278853;22;20480;-79
2022/11/17 13:06:14;;;;;;;63.53;38.15;;;13.20;99.90;;;;;;6278446;22;19996;-78
2022/11/17 13:08:53;;;;;;;71.70;40.92;;;13.10;99.90;;;;;;6278980;22;20003;-79
2022/11/17 13:11:19;;;;;;;91.13;52.65;;;13.10;99.90;;;;;;6278626;22;20002;-79
2022/11/17 13:13:45;;;;;;;98.60;62.17;;;13.00;99.90;;;;;;6278921;22;20371;-77
2022/11/17 13:16:20;;;;;;;109.82;68.75;;;12.90;99.90;;;;;;6278753;22;19992;-78